sensor_id;sensor_type;location;lat;lon;timestamp;temperature;humidity
26081;DHT22;13991;51.174;4.438;2023-04-03T00:01:24;6.60;99.90
26081;DHT22;13991;51.174;4.438;2023-04-03T00:03:50;6.40;99.90
26081;DHT22;13991;51.174;4.438;2023-04-03T00:06:17;6.40;99.90
26081;DHT22;13991;51.174;4.438;2023-04-03T00:08:43;6.50;99.90
26081;DHT22;13991;51.174;4.438;2023-04-03T00:11:09;6.40;99.90
26081;DHT22;13991;51.174;4.438;2023-04-03T00:13:36;6.40;99.90
26081;DHT22;13991;51.174;4.438;2023-04-03T00:16:02;6.30;99.90
26081;DHT22;13991;51.174;4.438;2023-04-03T00:18:30;6.40;99.90
26081;DHT22;13991;51.174;4.438;2023-04-03T00:20:55;6.20;99.90
26081;DHT22;13991;51.174;4.438;2023-04-03T00:23:21;6.10;99.90
26081;DHT22;13991;51.174;4.438;2023-04-03T00:25:49;6.10;99.90
26081;DHT22;13991;51.174;4.438;2023-04-03T00:28:15;6.10;99.90
26081;DHT22;13991;51.174;4.438;2023-04-03T00:30:41;6.00;99.90
26081;DHT22;13991;51.174;4.438;2023-04-03T00:33:06;6.00;99.90
26081;DHT22;13991;51.174;4.438;2023-04-03T00:35:34;5.90;99.90
26081;DHT22;13991;51.174;4.438;2023-04-03T00:37:59;5.90;99.90
26081;DHT22;13991;51.174;4.438;2023-04-03T00:40:26;6.00;99.90
26081;DHT22;13991;51.174;4.438;2023-04-03T00:42:56;6.00;99.90
26081;DHT22;13991;51.174;4.438;2023-04-03T00:45:42;5.90;99.90
26081;DHT22;13991;51.174;4.438;2023-04-03T00:48:12;5.90;99.90
26081;DHT22;13991;51.174;4.438;2023-04-03T00:50:41;5.90;99.90
26081;DHT22;13991;51.174;4.438;2023-04-03T00:53:12;5.80;99.90
26081;DHT22;13991;51.174;4.438;2023-04-03T00:55:40;5.90;99.90
26081;DHT22;13991;51.174;4.438;2023-04-03T00:58:07;5.80;99.90
26081;DHT22;13991;51.174;4.438;2023-04-03T01:00:34;5.70;99.90
26081;DHT22;13991;51.174;4.438;2023-04-03T01:03:01;5.60;99.90
26081;DHT22;13991;51.174;4.438;2023-04-03T01:05:26;5.80;99.90
26081;DHT22;13991;51.174;4.438;2023-04-03T01:07:52;5.80;99.90
26081;DHT22;13991;51.174;4.438;2023-04-03T01:10:20;5.70;99.90
26081;DHT22;13991;51.174;4.438;2023-04-03T01:12:49;5.60;99.90
26081;DHT22;13991;51.174;4.438;2023-04-03T01:15:22;5.60;99.90
26081;DHT22;13991;51.174;4.438;2023-04-03T01:17:55;5.70;99.90
26081;DHT22;13991;51.174;4.438;2023-04-03T01:23:16;5.70;99.90
26081;DHT22;13991;51.174;4.438;2023-04-03T01:25:52;5.80;99.90
26081;DHT22;13991;51.174;4.438;2023-04-03T01:31:22;5.60;99.90
26081;DHT22;13991;51.174;4.438;2023-04-03T01:33:50;5.50;99.90
26081;DHT22;13991;51.174;4.438;2023-04-03T01:36:24;5.60;99.90
26081;DHT22;13991;51.174;4.438;2023-04-03T01:38:52;5.50;99.90
26081;DHT22;13991;51.174;4.438;2023-04-03T01:41:18;5.60;99.90
26081;DHT22;13991;51.174;4.438;2023-04-03T01:43:43;5.60;99.90
26081;DHT22;13991;51.174;4.438;2023-04-03T01:46:09;5.70;99.90
26081;DHT22;13991;51.174;4.438;2023-04-03T01:48:35;5.70;99.90
26081;DHT22;13991;51.174;4.438;2023-04-03T01:51:01;5.60;99.90
26081;DHT22;13991;51.174;4.438;2023-04-03T01:53:27;5.60;99.90
26081;DHT22;13991;51.174;4.438;2023-04-03T01:55:52;5.60;99.90
26081;DHT22;13991;51.174;4.438;2023-04-03T01:58:18;5.60;99.90
26081;DHT22;13991;51.174;4.438;2023-04-03T02:00:44;5.60;99.90
26081;DHT22;13991;51.174;4.438;2023-04-03T02:03:09;5.50;99.90
26081;DHT22;13991;51.174;4.438;2023-04-03T02:05:35;5.50;99.90
26081;DHT22;13991;51.174;4.438;2023-04-03T02:08:01;5.40;99.90
26081;DHT22;13991;51.174;4.438;2023-04-03T02:10:27;5.30;99.90
26081;DHT22;13991;51.174;4.438;2023-04-03T02:12:52;5.30;99.90
26081;DHT22;13991;51.174;4.438;2023-04-03T02:15:18;5.20;99.90
26081;DHT22;13991;51.174;4.438;2023-04-03T02:17:44;5.20;99.90
26081;DHT22;13991;51.174;4.438;2023-04-03T02:20:10;5.30;99.90
26081;DHT22;13991;51.174;4.438;2023-04-03T02:22:36;5.30;99.90
26081;DHT22;13991;51.174;4.438;2023-04-03T02:25:01;5.10;99.90
26081;DHT22;13991;51.174;4.438;2023-04-03T02:27:27;5.00;99.90
26081;DHT22;13991;51.174;4.438;2023-04-03T02:29:53;5.10;99.90
26081;DHT22;13991;51.174;4.438;2023-04-03T02:32:19;5.00;99.90
26081;DHT22;13991;51.174;4.438;2023-04-03T02:34:45;5.10;99.90
26081;DHT22;13991;51.174;4.438;2023-04-03T02:37:10;5.10;99.90
26081;DHT22;13991;51.174;4.438;2023-04-03T02:39:36;5.00;99.90
26081;DHT22;13991;51.174;4.438;2023-04-03T02:42:02;5.00;99.90
26081;DHT22;13991;51.174;4.438;2023-04-03T02:44:28;5.00;99.90
26081;DHT22;13991;51.174;4.438;2023-04-03T02:46:54;5.10;99.90
26081;DHT22;13991;51.174;4.438;2023-04-03T02:49:19;5.10;99.90
26081;DHT22;13991;51.174;4.438;2023-04-03T02:51:45;5.20;99.90
26081;DHT22;13991;51.174;4.438;2023-04-03T02:54:11;5.20;99.90
26081;DHT22;13991;51.174;4.438;2023-04-03T02:56:37;5.10;99.90
26081;DHT22;13991;51.174;4.438;2023-04-03T02:59:03;5.20;99.90
26081;DHT22;13991;51.174;4.438;2023-04-03T03:01:28;5.00;99.90
26081;DHT22;13991;51.174;4.438;2023-04-03T03:03:57;5.10;99.90
26081;DHT22;13991;51.174;4.438;2023-04-03T03:06:23;5.00;99.90
26081;DHT22;13991;51.174;4.438;2023-04-03T03:08:48;5.00;99.90
26081;DHT22;13991;51.174;4.438;2023-04-03T03:11:14;5.00;99.90
26081;DHT22;13991;51.174;4.438;2023-04-03T03:13:40;5.10;99.90
26081;DHT22;13991;51.174;4.438;2023-04-03T03:16:06;5.10;99.90
26081;DHT22;13991;51.174;4.438;2023-04-03T03:18:32;5.10;99.90
26081;DHT22;13991;51.174;4.438;2023-04-03T03:21:00;5.20;99.90
26081;DHT22;13991;51.174;4.438;2023-04-03T03:23:27;5.10;99.90
26081;DHT22;13991;51.174;4.438;2023-04-03T03:25:58;5.20;99.90
26081;DHT22;13991;51.174;4.438;2023-04-03T03:28:24;5.10;99.90
26081;DHT22;13991;51.174;4.438;2023-04-03T03:30:50;5.10;99.90
26081;DHT22;13991;51.174;4.438;2023-04-03T03:33:16;5.10;99.90
26081;DHT22;13991;51.174;4.438;2023-04-03T03:35:43;5.20;99.90
26081;DHT22;13991;51.174;4.438;2023-04-03T03:38:10;5.00;99.90
26081;DHT22;13991;51.174;4.438;2023-04-03T03:40:36;5.00;99.90
26081;DHT22;13991;51.174;4.438;2023-04-03T03:43:02;4.90;99.90
26081;DHT22;13991;51.174;4.438;2023-04-03T03:45:28;4.90;99.90
26081;DHT22;13991;51.174;4.438;2023-04-03T03:47:54;4.80;99.90
26081;DHT22;13991;51.174;4.438;2023-04-03T03:50:20;4.90;99.90
26081;DHT22;13991;51.174;4.438;2023-04-03T03:52:46;4.90;99.90
26081;DHT22;13991;51.174;4.438;2023-04-03T03:55:12;5.00;99.90
26081;DHT22;13991;51.174;4.438;2023-04-03T03:57:38;5.00;99.90
26081;DHT22;13991;51.174;4.438;2023-04-03T04:00:05;4.90;99.90
26081;DHT22;13991;51.174;4.438;2023-04-03T04:02:32;4.90;99.90
26081;DHT22;13991;51.174;4.438;2023-04-03T04:04:58;4.90;99.90
26081;DHT22;13991;51.174;4.438;2023-04-03T04:07:24;4.80;99.90
26081;DHT22;13991;51.174;4.438;2023-04-03T04:09:49;4.80;99.90
26081;DHT22;13991;51.174;4.438;2023-04-03T04:12:15;4.80;99.90
26081;DHT22;13991;51.174;4.438;2023-04-03T04:14:41;4.70;99.90
26081;DHT22;13991;51.174;4.438;2023-04-03T04:17:07;4.60;99.90
26081;DHT22;13991;51.174;4.438;2023-04-03T04:19:32;4.70;99.90
26081;DHT22;13991;51.174;4.438;2023-04-03T04:21:58;4.70;99.90
26081;DHT22;13991;51.174;4.438;2023-04-03T04:24:24;4.60;99.90
26081;DHT22;13991;51.174;4.438;2023-04-03T04:26:50;4.60;99.90
26081;DHT22;13991;51.174;4.438;2023-04-03T04:29:16;4.60;99.90
26081;DHT22;13991;51.174;4.438;2023-04-03T04:31:41;4.60;99.90
26081;DHT22;13991;51.174;4.438;2023-04-03T04:34:07;4.50;99.90
26081;DHT22;13991;51.174;4.438;2023-04-03T04:36:33;4.50;99.90
26081;DHT22;13991;51.174;4.438;2023-04-03T04:38:58;4.30;99.90
26081;DHT22;13991;51.174;4.438;2023-04-03T04:41:24;4.40;99.90
26081;DHT22;13991;51.174;4.438;2023-04-03T04:43:51;4.40;99.90
26081;DHT22;13991;51.174;4.438;2023-04-03T04:46:17;4.40;99.90
26081;DHT22;13991;51.174;4.438;2023-04-03T04:48:44;4.30;99.90
26081;DHT22;13991;51.174;4.438;2023-04-03T04:51:10;4.30;99.90
26081;DHT22;13991;51.174;4.438;2023-04-03T04:53:36;4.40;99.90
26081;DHT22;13991;51.174;4.438;2023-04-03T04:56:02;4.40;99.90
26081;DHT22;13991;51.174;4.438;2023-04-03T04:58:28;4.40;99.90
26081;DHT22;13991;51.174;4.438;2023-04-03T05:01:07;4.50;99.90
26081;DHT22;13991;51.174;4.438;2023-04-03T05:03:33;4.50;99.90
26081;DHT22;13991;51.174;4.438;2023-04-03T05:05:59;4.50;99.90
26081;DHT22;13991;51.174;4.438;2023-04-03T05:08:25;4.40;99.90
26081;DHT22;13991;51.174;4.438;2023-04-03T05:10:52;4.40;99.90
26081;DHT22;13991;51.174;4.438;2023-04-03T05:13:18;4.30;99.90
26081;DHT22;13991;51.174;4.438;2023-04-03T05:15:45;4.20;99.90
26081;DHT22;13991;51.174;4.438;2023-04-03T05:18:11;4.40;99.90
26081;DHT22;13991;51.174;4.438;2023-04-03T05:20:37;4.50;99.90
26081;DHT22;13991;51.174;4.438;2023-04-03T05:23:03;4.50;99.90
26081;DHT22;13991;51.174;4.438;2023-04-03T05:25:29;4.40;99.90
26081;DHT22;13991;51.174;4.438;2023-04-03T05:28:04;4.40;99.90
26081;DHT22;13991;51.174;4.438;2023-04-03T05:30:33;4.50;99.90
26081;DHT22;13991;51.174;4.438;2023-04-03T05:32:59;4.40;99.90
26081;DHT22;13991;51.174;4.438;2023-04-03T05:35:25;4.40;99.90
26081;DHT22;13991;51.174;4.438;2023-04-03T05:37:51;4.40;99.90
26081;DHT22;13991;51.174;4.438;2023-04-03T05:40:17;4.40;99.90
26081;DHT22;13991;51.174;4.438;2023-04-03T05:42:44;4.30;99.90
26081;DHT22;13991;51.174;4.438;2023-04-03T05:45:10;4.30;99.90
26081;DHT22;13991;51.174;4.438;2023-04-03T05:47:42;4.30;99.90
26081;DHT22;13991;51.174;4.438;2023-04-03T05:50:08;4.40;99.90
26081;DHT22;13991;51.174;4.438;2023-04-03T05:52:37;4.40;99.90
26081;DHT22;13991;51.174;4.438;2023-04-03T05:55:05;4.40;99.90
26081;DHT22;13991;51.174;4.438;2023-04-03T05:57:31;4.40;99.90
26081;DHT22;13991;51.174;4.438;2023-04-03T05:59:57;4.30;99.90
26081;DHT22;13991;51.174;4.438;2023-04-03T06:02:24;4.60;99.90
26081;DHT22;13991;51.174;4.438;2023-04-03T06:04:51;4.60;99.90
26081;DHT22;13991;51.174;4.438;2023-04-03T06:07:22;4.60;99.90
26081;DHT22;13991;51.174;4.438;2023-04-03T06:09:50;4.60;99.90
26081;DHT22;13991;51.174;4.438;2023-04-03T06:12:16;4.60;99.90
26081;DHT22;13991;51.174;4.438;2023-04-03T06:14:42;4.60;99.90
26081;DHT22;13991;51.174;4.438;2023-04-03T06:17:08;4.60;99.90
26081;DHT22;13991;51.174;4.438;2023-04-03T06:19:34;4.70;99.90
26081;DHT22;13991;51.174;4.438;2023-04-03T06:22:00;4.90;99.90
26081;DHT22;13991;51.174;4.438;2023-04-03T06:24:26;5.00;99.90
26081;DHT22;13991;51.174;4.438;2023-04-03T06:26:53;5.00;99.90
26081;DHT22;13991;51.174;4.438;2023-04-03T06:29:22;5.00;99.90
26081;DHT22;13991;51.174;4.438;2023-04-03T06:31:48;5.00;99.90
26081;DHT22;13991;51.174;4.438;2023-04-03T06:34:15;5.00;99.90
26081;DHT22;13991;51.174;4.438;2023-04-03T06:36:41;5.10;99.90
26081;DHT22;13991;51.174;4.438;2023-04-03T06:39:11;5.20;99.90
26081;DHT22;13991;51.174;4.438;2023-04-03T06:41:38;5.20;99.90
26081;DHT22;13991;51.174;4.438;2023-04-03T06:44:04;5.20;99.90
26081;DHT22;13991;51.174;4.438;2023-04-03T06:46:30;5.20;99.90
26081;DHT22;13991;51.174;4.438;2023-04-03T06:48:56;5.30;99.90
26081;DHT22;13991;51.174;4.438;2023-04-03T06:51:26;5.40;99.90
26081;DHT22;13991;51.174;4.438;2023-04-03T06:53:57;5.50;99.90
26081;DHT22;13991;51.174;4.438;2023-04-03T06:56:23;5.50;99.90
26081;DHT22;13991;51.174;4.438;2023-04-03T06:58:51;5.60;99.90
26081;DHT22;13991;51.174;4.438;2023-04-03T07:01:18;5.60;99.90
26081;DHT22;13991;51.174;4.438;2023-04-03T07:03:47;5.70;99.90
26081;DHT22;13991;51.174;4.438;2023-04-03T07:06:16;5.70;99.90
26081;DHT22;13991;51.174;4.438;2023-04-03T07:11:51;5.90;99.90
26081;DHT22;13991;51.174;4.438;2023-04-03T07:14:17;6.00;99.90
26081;DHT22;13991;51.174;4.438;2023-04-03T07:16:42;6.10;99.90
26081;DHT22;13991;51.174;4.438;2023-04-03T07:19:08;6.30;99.90
26081;DHT22;13991;51.174;4.438;2023-04-03T07:21:35;6.30;99.90
26081;DHT22;13991;51.174;4.438;2023-04-03T07:24:00;6.40;99.90
26081;DHT22;13991;51.174;4.438;2023-04-03T07:26:27;6.40;99.90
26081;DHT22;13991;51.174;4.438;2023-04-03T07:28:57;6.50;99.90
26081;DHT22;13991;51.174;4.438;2023-04-03T07:31:22;6.50;99.90
26081;DHT22;13991;51.174;4.438;2023-04-03T07:33:48;6.50;99.90
26081;DHT22;13991;51.174;4.438;2023-04-03T07:36:20;6.60;99.90
26081;DHT22;13991;51.174;4.438;2023-04-03T07:38:48;6.70;99.90
26081;DHT22;13991;51.174;4.438;2023-04-03T07:41:18;6.70;99.90
26081;DHT22;13991;51.174;4.438;2023-04-03T07:43:44;6.70;99.90
26081;DHT22;13991;51.174;4.438;2023-04-03T07:46:10;6.70;99.90
26081;DHT22;13991;51.174;4.438;2023-04-03T07:48:39;6.90;99.90
26081;DHT22;13991;51.174;4.438;2023-04-03T07:51:05;7.10;99.90
26081;DHT22;13991;51.174;4.438;2023-04-03T07:53:31;7.10;99.90
26081;DHT22;13991;51.174;4.438;2023-04-03T07:55:58;7.10;99.90
26081;DHT22;13991;51.174;4.438;2023-04-03T07:58:25;7.00;99.90
26081;DHT22;13991;51.174;4.438;2023-04-03T08:00:58;7.00;99.90
26081;DHT22;13991;51.174;4.438;2023-04-03T08:03:24;7.10;99.90
26081;DHT22;13991;51.174;4.438;2023-04-03T08:05:50;7.10;99.90
26081;DHT22;13991;51.174;4.438;2023-04-03T08:08:19;7.10;99.90
26081;DHT22;13991;51.174;4.438;2023-04-03T08:10:49;7.20;99.90
26081;DHT22;13991;51.174;4.438;2023-04-03T08:13:18;7.30;99.90
26081;DHT22;13991;51.174;4.438;2023-04-03T08:15:45;7.40;99.90
26081;DHT22;13991;51.174;4.438;2023-04-03T08:18:15;7.50;99.90
26081;DHT22;13991;51.174;4.438;2023-04-03T08:20:44;7.60;99.90
26081;DHT22;13991;51.174;4.438;2023-04-03T08:23:12;7.80;99.90
26081;DHT22;13991;51.174;4.438;2023-04-03T08:25:43;8.00;99.90
26081;DHT22;13991;51.174;4.438;2023-04-03T08:28:10;8.00;99.90
26081;DHT22;13991;51.174;4.438;2023-04-03T08:30:39;8.00;99.90
26081;DHT22;13991;51.174;4.438;2023-04-03T08:33:05;7.90;99.90
26081;DHT22;13991;51.174;4.438;2023-04-03T08:35:31;7.90;99.90
26081;DHT22;13991;51.174;4.438;2023-04-03T08:37:57;8.00;99.90
26081;DHT22;13991;51.174;4.438;2023-04-03T08:40:23;8.20;99.90
26081;DHT22;13991;51.174;4.438;2023-04-03T08:43:02;8.30;99.90
26081;DHT22;13991;51.174;4.438;2023-04-03T08:45:53;8.30;99.90
26081;DHT22;13991;51.174;4.438;2023-04-03T08:48:19;8.30;99.90
26081;DHT22;13991;51.174;4.438;2023-04-03T08:50:53;8.40;99.90
26081;DHT22;13991;51.174;4.438;2023-04-03T08:53:23;8.40;99.90
26081;DHT22;13991;51.174;4.438;2023-04-03T08:55:51;8.50;99.90
26081;DHT22;13991;51.174;4.438;2023-04-03T08:58:26;8.50;99.90
26081;DHT22;13991;51.174;4.438;2023-04-03T09:01:00;8.60;99.90
26081;DHT22;13991;51.174;4.438;2023-04-03T09:03:30;8.70;99.90
26081;DHT22;13991;51.174;4.438;2023-04-03T09:08:31;8.60;99.90
26081;DHT22;13991;51.174;4.438;2023-04-03T09:16:25;9.20;99.90
26081;DHT22;13991;51.174;4.438;2023-04-03T09:19:43;9.40;99.90
26081;DHT22;13991;51.174;4.438;2023-04-03T09:21:42;9.40;99.90
26081;DHT22;13991;51.174;4.438;2023-04-03T09:24:12;9.20;99.90
26081;DHT22;13991;51.174;4.438;2023-04-03T09:29:20;9.10;99.90
26081;DHT22;13991;51.174;4.438;2023-04-03T09:31:49;9.30;99.90
26081;DHT22;13991;51.174;4.438;2023-04-03T09:34:28;9.40;99.90
26081;DHT22;13991;51.174;4.438;2023-04-03T09:37:00;9.50;99.90
26081;DHT22;13991;51.174;4.438;2023-04-03T09:39:33;9.40;99.90
26081;DHT22;13991;51.174;4.438;2023-04-03T09:42:20;9.50;99.90
26081;DHT22;13991;51.174;4.438;2023-04-03T09:44:58;9.60;99.90
26081;DHT22;13991;51.174;4.438;2023-04-03T09:47:35;9.70;99.90
26081;DHT22;13991;51.174;4.438;2023-04-03T09:52:47;9.70;99.90
26081;DHT22;13991;51.174;4.438;2023-04-03T09:55:14;9.70;99.90
26081;DHT22;13991;51.174;4.438;2023-04-03T09:57:41;9.80;99.90
26081;DHT22;13991;51.174;4.438;2023-04-03T10:00:23;9.70;99.90
26081;DHT22;13991;51.174;4.438;2023-04-03T10:02:56;9.90;99.90
26081;DHT22;13991;51.174;4.438;2023-04-03T10:05:41;10.00;99.90
26081;DHT22;13991;51.174;4.438;2023-04-03T10:10:33;10.20;99.90
26081;DHT22;13991;51.174;4.438;2023-04-03T10:13:17;10.20;99.90
26081;DHT22;13991;51.174;4.438;2023-04-03T10:15:55;10.20;99.90
26081;DHT22;13991;51.174;4.438;2023-04-03T10:18:27;10.30;99.90
26081;DHT22;13991;51.174;4.438;2023-04-03T10:20:59;10.40;99.90
26081;DHT22;13991;51.174;4.438;2023-04-03T10:24:10;10.50;99.90
26081;DHT22;13991;51.174;4.438;2023-04-03T10:51:45;10.70;93.10
26081;DHT22;13991;51.174;4.438;2023-04-03T10:54:26;10.90;92.70
26081;DHT22;13991;51.174;4.438;2023-04-03T10:57:06;11.10;92.30
26081;DHT22;13991;51.174;4.438;2023-04-03T10:59:54;11.20;91.00
26081;DHT22;13991;51.174;4.438;2023-04-03T11:02:25;11.40;86.40
26081;DHT22;13991;51.174;4.438;2023-04-03T11:04:57;11.50;84.60
26081;DHT22;13991;51.174;4.438;2023-04-03T11:07:32;11.40;85.80
26081;DHT22;13991;51.174;4.438;2023-04-03T11:10:17;11.30;84.50
26081;DHT22;13991;51.174;4.438;2023-04-03T11:12:52;11.30;81.70
26081;DHT22;13991;51.174;4.438;2023-04-03T11:15:22;11.40;82.20
26081;DHT22;13991;51.174;4.438;2023-04-03T11:17:51;11.50;83.30
26081;DHT22;13991;51.174;4.438;2023-04-03T11:20:20;11.50;78.50
26081;DHT22;13991;51.174;4.438;2023-04-03T11:22:57;11.50;79.50
26081;DHT22;13991;51.174;4.438;2023-04-03T11:25:25;11.40;79.70
26081;DHT22;13991;51.174;4.438;2023-04-03T11:27:58;11.40;79.70
26081;DHT22;13991;51.174;4.438;2023-04-03T11:30:28;11.50;77.20
26081;DHT22;13991;51.174;4.438;2023-04-03T11:33:19;11.50;75.40
26081;DHT22;13991;51.174;4.438;2023-04-03T11:35:57;11.60;76.80
26081;DHT22;13991;51.174;4.438;2023-04-03T11:38:30;11.80;72.50
26081;DHT22;13991;51.174;4.438;2023-04-03T11:41:01;11.80;73.20
26081;DHT22;13991;51.174;4.438;2023-04-03T11:43:29;11.80;71.90
26081;DHT22;13991;51.174;4.438;2023-04-03T11:46:04;11.80;72.70
26081;DHT22;13991;51.174;4.438;2023-04-03T11:53:42;12.00;61.50
26081;DHT22;13991;51.174;4.438;2023-04-03T12:01:49;11.80;59.10
26081;DHT22;13991;51.174;4.438;2023-04-03T12:04:20;11.70;59.70
26081;DHT22;13991;51.174;4.438;2023-04-03T12:11:57;12.00;55.10
26081;DHT22;13991;51.174;4.438;2023-04-03T12:14:24;11.90;55.60
26081;DHT22;13991;51.174;4.438;2023-04-03T12:16:53;11.80;55.60
26081;DHT22;13991;51.174;4.438;2023-04-03T12:19:38;11.80;56.30
26081;DHT22;13991;51.174;4.438;2023-04-03T12:22:14;12.00;55.90
26081;DHT22;13991;51.174;4.438;2023-04-03T12:24:43;11.90;57.00
26081;DHT22;13991;51.174;4.438;2023-04-03T12:30:12;12.00;56.80
26081;DHT22;13991;51.174;4.438;2023-04-03T12:32:47;12.00;55.80
26081;DHT22;13991;51.174;4.438;2023-04-03T12:46:09;11.90;55.00
26081;DHT22;13991;51.174;4.438;2023-04-03T12:48:55;11.90;54.40
26081;DHT22;13991;51.174;4.438;2023-04-03T12:51:40;12.00;53.70
26081;DHT22;13991;51.174;4.438;2023-04-03T12:54:26;11.80;55.40
26081;DHT22;13991;51.174;4.438;2023-04-03T12:59:43;12.10;54.20
26081;DHT22;13991;51.174;4.438;2023-04-03T13:04:55;12.10;56.60
26081;DHT22;13991;51.174;4.438;2023-04-03T13:07:30;12.10;57.10
26081;DHT22;13991;51.174;4.438;2023-04-03T13:10:17;12.10;56.60
26081;DHT22;13991;51.174;4.438;2023-04-03T13:12:54;12.20;55.40
26081;DHT22;13991;51.174;4.438;2023-04-03T13:15:26;12.30;55.00
26081;DHT22;13991;51.174;4.438;2023-04-03T13:17:53;12.40;55.70
26081;DHT22;13991;51.174;4.438;2023-04-03T13:23:04;12.60;56.10
26081;DHT22;13991;51.174;4.438;2023-04-03T13:25:34;12.60;57.30
26081;DHT22;13991;51.174;4.438;2023-04-03T13:28:02;12.60;54.60
26081;DHT22;13991;51.174;4.438;2023-04-03T13:30:34;12.50;54.30
26081;DHT22;13991;51.174;4.438;2023-04-03T13:33:19;12.40;54.90
26081;DHT22;13991;51.174;4.438;2023-04-03T13:35:46;12.40;56.20
26081;DHT22;13991;51.174;4.438;2023-04-03T13:40:55;12.60;55.80
26081;DHT22;13991;51.174;4.438;2023-04-03T13:43:24;12.60;56.20
26081;DHT22;13991;51.174;4.438;2023-04-03T13:48:46;12.90;54.40
26081;DHT22;13991;51.174;4.438;2023-04-03T13:56:37;12.80;54.10
26081;DHT22;13991;51.174;4.438;2023-04-03T13:59:21;12.80;55.80
26081;DHT22;13991;51.174;4.438;2023-04-03T14:07:02;12.90;55.20
26081;DHT22;13991;51.174;4.438;2023-04-03T14:09:28;13.00;55.00
26081;DHT22;13991;51.174;4.438;2023-04-03T14:12:00;13.10;55.80
26081;DHT22;13991;51.174;4.438;2023-04-03T14:14:32;13.20;54.30
26081;DHT22;13991;51.174;4.438;2023-04-03T14:17:01;13.20;54.40
26081;DHT22;13991;51.174;4.438;2023-04-03T14:19:33;13.10;52.80
26081;DHT22;13991;51.174;4.438;2023-04-03T14:22:05;13.10;53.60
26081;DHT22;13991;51.174;4.438;2023-04-03T14:24:32;13.10;52.30
26081;DHT22;13991;51.174;4.438;2023-04-03T14:26:57;13.10;52.00
26081;DHT22;13991;51.174;4.438;2023-04-03T14:29:24;13.30;51.40
26081;DHT22;13991;51.174;4.438;2023-04-03T14:31:50;13.40;50.90
26081;DHT22;13991;51.174;4.438;2023-04-03T14:34:16;13.40;51.90
26081;DHT22;13991;51.174;4.438;2023-04-03T14:36:44;13.40;52.30
26081;DHT22;13991;51.174;4.438;2023-04-03T14:39:18;13.20;53.40
26081;DHT22;13991;51.174;4.438;2023-04-03T14:41:44;13.10;54.00
26081;DHT22;13991;51.174;4.438;2023-04-03T14:44:10;13.30;53.60
26081;DHT22;13991;51.174;4.438;2023-04-03T14:46:38;13.40;51.70
26081;DHT22;13991;51.174;4.438;2023-04-03T14:49:15;13.20;51.70
26081;DHT22;13991;51.174;4.438;2023-04-03T14:51:43;13.10;52.20
26081;DHT22;13991;51.174;4.438;2023-04-03T14:54:15;12.70;53.40
26081;DHT22;13991;51.174;4.438;2023-04-03T14:56:41;12.70;53.80
26081;DHT22;13991;51.174;4.438;2023-04-03T14:59:14;12.70;52.30
26081;DHT22;13991;51.174;4.438;2023-04-03T15:01:42;12.80;51.80
26081;DHT22;13991;51.174;4.438;2023-04-03T15:04:16;12.60;51.90
26081;DHT22;13991;51.174;4.438;2023-04-03T15:06:42;12.60;52.60
26081;DHT22;13991;51.174;4.438;2023-04-03T15:09:25;12.70;52.90
26081;DHT22;13991;51.174;4.438;2023-04-03T15:11:52;12.70;50.60
26081;DHT22;13991;51.174;4.438;2023-04-03T15:14:19;12.70;51.50
26081;DHT22;13991;51.174;4.438;2023-04-03T15:16:45;12.90;51.50
26081;DHT22;13991;51.174;4.438;2023-04-03T15:19:11;12.90;51.80
26081;DHT22;13991;51.174;4.438;2023-04-03T15:21:38;12.90;52.10
26081;DHT22;13991;51.174;4.438;2023-04-03T15:24:04;12.80;52.30
26081;DHT22;13991;51.174;4.438;2023-04-03T15:26:30;12.70;52.50
26081;DHT22;13991;51.174;4.438;2023-04-03T15:28:56;12.90;53.10
26081;DHT22;13991;51.174;4.438;2023-04-03T15:31:22;12.90;53.20
26081;DHT22;13991;51.174;4.438;2023-04-03T15:33:48;12.90;52.70
26081;DHT22;13991;51.174;4.438;2023-04-03T15:36:13;12.80;51.60
26081;DHT22;13991;51.174;4.438;2023-04-03T15:38:39;12.80;52.10
26081;DHT22;13991;51.174;4.438;2023-04-03T15:41:05;12.80;52.80
26081;DHT22;13991;51.174;4.438;2023-04-03T15:43:31;12.80;53.40
26081;DHT22;13991;51.174;4.438;2023-04-03T15:45:59;12.60;54.30
26081;DHT22;13991;51.174;4.438;2023-04-03T15:48:27;12.50;55.10
26081;DHT22;13991;51.174;4.438;2023-04-03T15:50:52;12.80;55.00
26081;DHT22;13991;51.174;4.438;2023-04-03T15:53:18;12.80;54.70
26081;DHT22;13991;51.174;4.438;2023-04-03T15:55:44;12.90;54.70
26081;DHT22;13991;51.174;4.438;2023-04-03T15:58:10;12.90;54.50
26081;DHT22;13991;51.174;4.438;2023-04-03T16:00:36;12.80;52.80
26081;DHT22;13991;51.174;4.438;2023-04-03T16:03:16;12.70;53.40
26081;DHT22;13991;51.174;4.438;2023-04-03T16:05:42;12.60;53.40
26081;DHT22;13991;51.174;4.438;2023-04-03T16:08:08;12.60;54.60
26081;DHT22;13991;51.174;4.438;2023-04-03T16:10:35;12.60;54.30
26081;DHT22;13991;51.174;4.438;2023-04-03T16:13:02;12.50;55.10
26081;DHT22;13991;51.174;4.438;2023-04-03T16:15:29;12.40;55.10
26081;DHT22;13991;51.174;4.438;2023-04-03T16:17:57;12.30;55.20
26081;DHT22;13991;51.174;4.438;2023-04-03T16:20:23;12.40;56.10
26081;DHT22;13991;51.174;4.438;2023-04-03T16:22:49;12.50;55.70
26081;DHT22;13991;51.174;4.438;2023-04-03T16:25:15;12.50;55.10
26081;DHT22;13991;51.174;4.438;2023-04-03T16:27:41;12.40;55.90
26081;DHT22;13991;51.174;4.438;2023-04-03T16:30:07;12.40;56.20
26081;DHT22;13991;51.174;4.438;2023-04-03T16:32:34;12.40;56.60
26081;DHT22;13991;51.174;4.438;2023-04-03T16:35:00;12.50;57.20
26081;DHT22;13991;51.174;4.438;2023-04-03T16:37:26;12.40;57.70
26081;DHT22;13991;51.174;4.438;2023-04-03T16:39:52;12.30;57.40
26081;DHT22;13991;51.174;4.438;2023-04-03T16:42:18;12.30;57.60
26081;DHT22;13991;51.174;4.438;2023-04-03T16:44:43;12.20;57.60
26081;DHT22;13991;51.174;4.438;2023-04-03T16:47:09;12.00;59.10
26081;DHT22;13991;51.174;4.438;2023-04-03T16:49:36;12.00;59.10
26081;DHT22;13991;51.174;4.438;2023-04-03T16:52:03;11.90;59.20
26081;DHT22;13991;51.174;4.438;2023-04-03T16:54:30;11.90;59.90
26081;DHT22;13991;51.174;4.438;2023-04-03T16:56:56;11.90;59.80
26081;DHT22;13991;51.174;4.438;2023-04-03T16:59:22;11.90;60.70
26081;DHT22;13991;51.174;4.438;2023-04-03T17:01:48;11.80;61.50
26081;DHT22;13991;51.174;4.438;2023-04-03T17:04:14;11.70;61.40
26081;DHT22;13991;51.174;4.438;2023-04-03T17:06:40;11.70;60.10
26081;DHT22;13991;51.174;4.438;2023-04-03T17:09:06;11.60;60.80
26081;DHT22;13991;51.174;4.438;2023-04-03T17:11:32;11.60;61.60
26081;DHT22;13991;51.174;4.438;2023-04-03T17:13:58;11.60;60.80
26081;DHT22;13991;51.174;4.438;2023-04-03T17:16:25;11.60;60.70
26081;DHT22;13991;51.174;4.438;2023-04-03T17:18:52;11.40;61.30
26081;DHT22;13991;51.174;4.438;2023-04-03T17:21:19;11.30;60.70
26081;DHT22;13991;51.174;4.438;2023-04-03T17:23:49;11.30;62.00
26081;DHT22;13991;51.174;4.438;2023-04-03T17:26:16;11.30;61.80
26081;DHT22;13991;51.174;4.438;2023-04-03T17:28:42;11.10;62.70
26081;DHT22;13991;51.174;4.438;2023-04-03T17:31:07;11.00;63.10
26081;DHT22;13991;51.174;4.438;2023-04-03T17:33:33;11.00;63.90